sensor_id;sensor_type;location;lat;lon;timestamp;pressure;altitude;pressure_sealevel;temperature;humidity
41467;BME280;72625;53.700;19.958;2023-10-31T00:01:36;98873.00;;;10.88;100.00
41467;BME280;72625;53.700;19.958;2023-10-31T00:06:40;98862.44;;;10.91;100.00
41467;BME280;72625;53.700;19.958;2023-10-31T00:11:43;98853.48;;;10.90;100.00
41467;BME280;72625;53.700;19.958;2023-10-31T00:16:47;98851.63;;;10.90;100.00
41467;BME280;72625;53.700;19.958;2023-10-31T00:21:51;98852.04;;;10.91;100.00
41467;BME280;72625;53.700;19.958;2023-10-31T00:26:54;98845.12;;;10.89;100.00
41467;BME280;72625;53.700;19.958;2023-10-31T00:31:58;98841.71;;;10.91;100.00
41467;BME280;72625;53.700;19.958;2023-10-31T00:37:01;98837.27;;;10.93;100.00
41467;BME280;72625;53.700;19.958;2023-10-31T00:42:04;98834.45;;;10.94;100.00
41467;BME280;72625;53.700;19.958;2023-10-31T00:47:07;98825.23;;;10.91;100.00
41467;BME280;72625;53.700;19.958;2023-10-31T00:52:11;98811.26;;;10.89;100.00
41467;BME280;72625;53.700;19.958;2023-10-31T00:57:14;98803.98;;;10.89;100.00
41467;BME280;72625;53.700;19.958;2023-10-31T01:02:17;98801.84;;;10.85;100.00
41467;BME280;72625;53.700;19.958;2023-10-31T01:07:20;98796.72;;;10.80;100.00
41467;BME280;72625;53.700;19.958;2023-10-31T01:12:23;98784.04;;;10.74;100.00
41467;BME280;72625;53.700;19.958;2023-10-31T01:17:27;98775.98;;;10.71;100.00
41467;BME280;72625;53.700;19.958;2023-10-31T01:22:30;98771.02;;;10.67;100.00
41467;BME280;72625;53.700;19.958;2023-10-31T01:27:33;98763.80;;;10.68;100.00
41467;BME280;72625;53.700;19.958;2023-10-31T01:32:36;98739.98;;;10.70;100.00
41467;BME280;72625;53.700;19.958;2023-10-31T01:37:39;98721.35;;;10.68;100.00
41467;BME280;72625;53.700;19.958;2023-10-31T01:42:43;98711.29;;;10.68;100.00
41467;BME280;72625;53.700;19.958;2023-10-31T01:47:48;98694.31;;;10.71;100.00
41467;BME280;72625;53.700;19.958;2023-10-31T01:52:52;98674.45;;;10.74;100.00
41467;BME280;72625;53.700;19.958;2023-10-31T01:57:56;98661.56;;;10.73;100.00
41467;BME280;72625;53.700;19.958;2023-10-31T02:02:59;98645.45;;;10.72;100.00
41467;BME280;72625;53.700;19.958;2023-10-31T02:08:05;98626.79;;;10.71;100.00
41467;BME280;72625;53.700;19.958;2023-10-31T02:13:12;98618.56;;;10.76;100.00
41467;BME280;72625;53.700;19.958;2023-10-31T02:18:15;98608.70;;;10.80;100.00
41467;BME280;72625;53.700;19.958;2023-10-31T02:23:19;98595.63;;;10.84;100.00
41467;BME280;72625;53.700;19.958;2023-10-31T02:28:22;98596.05;;;10.88;100.00
41467;BME280;72625;53.700;19.958;2023-10-31T02:33:25;98596.25;;;10.92;100.00
41467;BME280;72625;53.700;19.958;2023-10-31T02:38:29;98590.35;;;10.94;100.00
41467;BME280;72625;53.700;19.958;2023-10-31T02:43:32;98583.77;;;10.97;100.00
41467;BME280;72625;53.700;19.958;2023-10-31T02:48:35;98573.70;;;11.00;100.00
41467;BME280;72625;53.700;19.958;2023-10-31T02:53:42;98555.05;;;11.03;100.00
41467;BME280;72625;53.700;19.958;2023-10-31T02:58:45;98539.13;;;11.04;100.00
41467;BME280;72625;53.700;19.958;2023-10-31T03:03:48;98521.48;;;11.06;100.00
41467;BME280;72625;53.700;19.958;2023-10-31T03:08:52;98515.16;;;11.09;100.00
41467;BME280;72625;53.700;19.958;2023-10-31T03:13:56;98503.52;;;11.10;100.00
41467;BME280;72625;53.700;19.958;2023-10-31T03:19:02;98480.11;;;11.14;100.00
41467;BME280;72625;53.700;19.958;2023-10-31T03:24:05;98458.04;;;11.20;100.00
41467;BME280;72625;53.700;19.958;2023-10-31T03:29:08;98443.34;;;11.25;100.00
41467;BME280;72625;53.700;19.958;2023-10-31T03:34:12;98434.42;;;11.33;100.00
41467;BME280;72625;53.700;19.958;2023-10-31T03:39:15;98412.48;;;11.38;100.00
41467;BME280;72625;53.700;19.958;2023-10-31T03:44:18;98398.87;;;11.44;100.00
41467;BME280;72625;53.700;19.958;2023-10-31T03:49:22;98391.83;;;11.47;100.00
41467;BME280;72625;53.700;19.958;2023-10-31T03:54:25;98389.91;;;11.49;100.00
41467;BME280;72625;53.700;19.958;2023-10-31T03:59:28;98377.14;;;11.48;100.00
41467;BME280;72625;53.700;19.958;2023-10-31T04:04:31;98376.34;;;11.46;100.00
41467;BME280;72625;53.700;19.958;2023-10-31T04:09:34;98363.89;;;11.43;100.00
41467;BME280;72625;53.700;19.958;2023-10-31T04:14:38;98355.29;;;11.41;100.00
41467;BME280;72625;53.700;19.958;2023-10-31T04:19:41;98350.38;;;11.42;100.00
41467;BME280;72625;53.700;19.958;2023-10-31T04:24:45;98340.70;;;11.42;100.00
41467;BME280;72625;53.700;19.958;2023-10-31T04:29:48;98334.31;;;11.43;100.00
41467;BME280;72625;53.700;19.958;2023-10-31T04:34:51;98326.88;;;11.45;100.00
41467;BME280;72625;53.700;19.958;2023-10-31T04:39:54;98316.27;;;11.44;100.00
41467;BME280;72625;53.700;19.958;2023-10-31T04:44:57;98298.08;;;11.43;100.00
41467;BME280;72625;53.700;19.958;2023-10-31T04:50:01;98280.77;;;11.38;100.00
41467;BME280;72625;53.700;19.958;2023-10-31T04:55:04;98266.54;;;11.39;100.00
41467;BME280;72625;53.700;19.958;2023-10-31T05:00:08;98256.33;;;11.38;100.00
41467;BME280;72625;53.700;19.958;2023-10-31T05:05:12;98250.91;;;11.38;100.00
41467;BME280;72625;53.700;19.958;2023-10-31T05:10:15;98245.10;;;11.36;100.00
41467;BME280;72625;53.700;19.958;2023-10-31T05:15:19;98234.92;;;11.38;100.00
41467;BME280;72625;53.700;19.958;2023-10-31T05:20:22;98227.27;;;11.38;100.00
41467;BME280;72625;53.700;19.958;2023-10-31T05:25:25;98216.80;;;11.36;100.00
41467;BME280;72625;53.700;19.958;2023-10-31T05:30:28;98209.32;;;11.38;100.00
41467;BME280;72625;53.700;19.958;2023-10-31T05:35:33;98206.79;;;11.40;100.00
41467;BME280;72625;53.700;19.958;2023-10-31T05:40:36;98194.30;;;11.41;100.00
41467;BME280;72625;53.700;19.958;2023-10-31T05:45:40;98176.51;;;11.41;100.00
41467;BME280;72625;53.700;19.958;2023-10-31T05:50:46;98167.23;;;11.37;100.00
41467;BME280;72625;53.700;19.958;2023-10-31T05:55:49;98157.94;;;11.34;100.00
41467;BME280;72625;53.700;19.958;2023-10-31T06:00:52;98150.48;;;11.34;100.00
41467;BME280;72625;53.700;19.958;2023-10-31T06:05:56;98148.20;;;11.36;100.00
41467;BME280;72625;53.700;19.958;2023-10-31T06:11:00;98139.42;;;11.41;100.00
41467;BME280;72625;53.700;19.958;2023-10-31T06:16:04;98128.61;;;11.49;100.00
41467;BME280;72625;53.700;19.958;2023-10-31T06:21:08;98121.84;;;11.56;100.00
41467;BME280;72625;53.700;19.958;2023-10-31T06:26:13;98114.74;;;11.62;100.00
41467;BME280;72625;53.700;19.958;2023-10-31T06:31:17;98111.61;;;11.71;100.00
41467;BME280;72625;53.700;19.958;2023-10-31T06:36:20;98108.14;;;11.80;100.00
41467;BME280;72625;53.700;19.958;2023-10-31T06:41:23;98101.21;;;11.88;100.00
41467;BME280;72625;53.700;19.958;2023-10-31T06:46:27;98099.44;;;11.93;100.00
41467;BME280;72625;53.700;19.958;2023-10-31T06:51:30;98099.62;;;11.98;100.00
41467;BME280;72625;53.700;19.958;2023-10-31T06:56:33;98100.20;;;12.06;100.00
41467;BME280;72625;53.700;19.958;2023-10-31T07:01:37;98090.86;;;12.14;100.00
41467;BME280;72625;53.700;19.958;2023-10-31T07:06:40;98081.04;;;12.26;100.00
41467;BME280;72625;53.700;19.958;2023-10-31T07:11:44;98068.50;;;12.41;100.00
41467;BME280;72625;53.700;19.958;2023-10-31T07:16:47;98061.75;;;12.58;100.00
41467;BME280;72625;53.700;19.958;2023-10-31T07:21:51;98059.52;;;12.78;100.00
41467;BME280;72625;53.700;19.958;2023-10-31T07:26:55;98055.29;;;12.97;100.00
41467;BME280;72625;53.700;19.958;2023-10-31T07:31:58;98043.44;;;13.12;100.00
41467;BME280;72625;53.700;19.958;2023-10-31T07:37:02;98028.14;;;13.19;100.00
41467;BME280;72625;53.700;19.958;2023-10-31T07:42:05;98029.48;;;13.25;100.00
41467;BME280;72625;53.700;19.958;2023-10-31T07:47:09;98021.82;;;13.26;100.00
41467;BME280;72625;53.700;19.958;2023-10-31T07:52:12;98020.34;;;13.27;100.00
41467;BME280;72625;53.700;19.958;2023-10-31T07:57:15;98009.55;;;13.30;100.00
41467;BME280;72625;53.700;19.958;2023-10-31T08:02:18;97999.14;;;13.36;100.00
41467;BME280;72625;53.700;19.958;2023-10-31T08:07:22;98006.44;;;13.56;100.00
41467;BME280;72625;53.700;19.958;2023-10-31T08:12:26;97999.23;;;13.86;100.00
41467;BME280;72625;53.700;19.958;2023-10-31T08:17:30;97993.70;;;14.13;100.00
41467;BME280;72625;53.700;19.958;2023-10-31T08:22:35;97988.67;;;14.36;100.00
41467;BME280;72625;53.700;19.958;2023-10-31T08:27:38;97966.08;;;14.51;100.00
41467;BME280;72625;53.700;19.958;2023-10-31T08:32:41;97953.13;;;14.64;100.00
41467;BME280;72625;53.700;19.958;2023-10-31T08:37:44;97957.81;;;14.80;100.00
41467;BME280;72625;53.700;19.958;2023-10-31T08:42:48;97955.39;;;15.09;100.00
41467;BME280;72625;53.700;19.958;2023-10-31T08:47:51;97954.66;;;15.33;100.00
41467;BME280;72625;53.700;19.958;2023-10-31T08:52:54;97954.86;;;15.57;100.00
41467;BME280;72625;53.700;19.958;2023-10-31T08:57:57;97948.81;;;15.76;100.00
41467;BME280;72625;53.700;19.958;2023-10-31T09:03:01;97939.48;;;15.96;100.00
41467;BME280;72625;53.700;19.958;2023-10-31T09:08:04;97936.97;;;16.12;100.00
41467;BME280;72625;53.700;19.958;2023-10-31T09:13:08;97921.83;;;16.23;100.00
41467;BME280;72625;53.700;19.958;2023-10-31T09:18:12;97927.25;;;16.35;100.00
41467;BME280;72625;53.700;19.958;2023-10-31T09:23:16;97928.17;;;16.34;100.00
41467;BME280;72625;53.700;19.958;2023-10-31T09:28:20;97930.80;;;16.32;100.00
41467;BME280;72625;53.700;19.958;2023-10-31T09:33:23;97930.77;;;16.28;100.00
41467;BME280;72625;53.700;19.958;2023-10-31T09:38:26;97921.52;;;16.20;100.00
41467;BME280;72625;53.700;19.958;2023-10-31T09:43:31;97923.86;;;16.16;100.00
41467;BME280;72625;53.700;19.958;2023-10-31T09:48:34;97921.41;;;16.08;100.00
41467;BME280;72625;53.700;19.958;2023-10-31T09:53:38;97921.16;;;16.06;100.00
41467;BME280;72625;53.700;19.958;2023-10-31T09:58:44;97923.15;;;16.06;100.00
41467;BME280;72625;53.700;19.958;2023-10-31T10:03:47;97924.59;;;15.94;100.00
41467;BME280;72625;53.700;19.958;2023-10-31T10:08:51;97923.77;;;15.83;100.00
41467;BME280;72625;53.700;19.958;2023-10-31T10:13:57;97922.08;;;15.72;100.00
41467;BME280;72625;53.700;19.958;2023-10-31T10:19:18;97925.33;;;15.54;100.00
41467;BME280;72625;53.700;19.958;2023-10-31T10:24:25;97932.48;;;15.36;100.00
41467;BME280;72625;53.700;19.958;2023-10-31T10:29:28;97933.17;;;15.19;100.00
41467;BME280;72625;53.700;19.958;2023-10-31T10:34:31;97931.08;;;15.05;100.00
41467;BME280;72625;53.700;19.958;2023-10-31T10:39:36;97935.00;;;14.92;100.00
41467;BME280;72625;53.700;19.958;2023-10-31T10:44:44;97930.04;;;14.83;100.00
41467;BME280;72625;53.700;19.958;2023-10-31T10:49:50;97924.71;;;14.73;100.00
41467;BME280;72625;53.700;19.958;2023-10-31T10:55:03;97933.27;;;14.65;100.00
41467;BME280;72625;53.700;19.958;2023-10-31T11:00:08;97936.21;;;14.57;100.00
41467;BME280;72625;53.700;19.958;2023-10-31T11:05:15;97940.56;;;14.48;100.00
41467;BME280;72625;53.700;19.958;2023-10-31T11:10:19;97942.81;;;14.37;100.00
41467;BME280;72625;53.700;19.958;2023-10-31T11:15:23;97950.08;;;14.25;100.00
41467;BME280;72625;53.700;19.958;2023-10-31T11:20:27;97957.98;;;14.17;100.00
41467;BME280;72625;53.700;19.958;2023-10-31T11:25:32;97959.89;;;14.10;100.00
41467;BME280;72625;53.700;19.958;2023-10-31T11:30:36;97957.98;;;14.08;100.00
41467;BME280;72625;53.700;19.958;2023-10-31T11:35:40;97965.30;;;14.09;100.00
41467;BME280;72625;53.700;19.958;2023-10-31T11:40:57;97973.30;;;14.16;100.00
41467;BME280;72625;53.700;19.958;2023-10-31T11:46:03;97975.89;;;14.13;100.00
41467;BME280;72625;53.700;19.958;2023-10-31T11:51:06;97969.72;;;14.12;100.00
41467;BME280;72625;53.700;19.958;2023-10-31T11:56:10;97973.50;;;14.13;100.00
41467;BME280;72625;53.700;19.958;2023-10-31T12:01:14;97974.64;;;14.12;100.00
41467;BME280;72625;53.700;19.958;2023-10-31T12:06:18;97970.38;;;14.16;100.00
41467;BME280;72625;53.700;19.958;2023-10-31T12:11:23;97984.11;;;14.10;100.00
41467;BME280;72625;53.700;19.958;2023-10-31T12:16:28;97993.34;;;14.04;100.00
41467;BME280;72625;53.700;19.958;2023-10-31T12:21:46;97998.44;;;14.01;100.00
41467;BME280;72625;53.700;19.958;2023-10-31T12:26:51;98011.48;;;13.97;100.00
41467;BME280;72625;53.700;19.958;2023-10-31T12:31:54;98006.88;;;13.92;100.00
41467;BME280;72625;53.700;19.958;2023-10-31T12:37:01;98013.95;;;13.87;100.00
41467;BME280;72625;53.700;19.958;2023-10-31T12:42:06;98024.63;;;13.85;100.00
41467;BME280;72625;53.700;19.958;2023-10-31T12:47:10;98036.52;;;13.89;100.00
41467;BME280;72625;53.700;19.958;2023-10-31T12:52:13;98041.56;;;13.89;100.00
41467;BME280;72625;53.700;19.958;2023-10-31T12:57:16;98039.75;;;13.87;100.00
41467;BME280;72625;53.700;19.958;2023-10-31T13:02:19;98044.95;;;13.81;100.00
41467;BME280;72625;53.700;19.958;2023-10-31T13:07:26;98044.60;;;13.73;100.00
41467;BME280;72625;53.700;19.958;2023-10-31T13:12:30;98038.16;;;13.66;100.00
41467;BME280;72625;53.700;19.958;2023-10-31T13:17:33;98051.29;;;13.63;100.00
41467;BME280;72625;53.700;19.958;2023-10-31T13:22:41;98055.64;;;13.62;100.00
41467;BME280;72625;53.700;19.958;2023-10-31T13:27:45;98060.92;;;13.65;100.00
41467;BME280;72625;53.700;19.958;2023-10-31T13:32:54;98071.74;;;13.68;100.00
41467;BME280;72625;53.700;19.958;2023-10-31T13:37:57;98088.46;;;13.70;100.00
41467;BME280;72625;53.700;19.958;2023-10-31T13:43:00;98104.82;;;13.72;100.00
41467;BME280;72625;53.700;19.958;2023-10-31T13:48:04;98121.27;;;13.74;100.00
41467;BME280;72625;53.700;19.958;2023-10-31T13:53:07;98138.04;;;13.73;100.00
41467;BME280;72625;53.700;19.958;2023-10-31T13:58:11;98139.85;;;13.76;100.00
41467;BME280;72625;53.700;19.958;2023-10-31T14:03:14;98158.83;;;13.78;100.00
41467;BME280;72625;53.700;19.958;2023-10-31T14:08:19;98160.88;;;13.79;100.00
41467;BME280;72625;53.700;19.958;2023-10-31T14:13:23;98168.66;;;13.81;100.00
41467;BME280;72625;53.700;19.958;2023-10-31T14:18:27;98185.56;;;13.82;100.00
41467;BME280;72625;53.700;19.958;2023-10-31T14:23:30;98189.73;;;13.82;100.00
41467;BME280;72625;53.700;19.958;2023-10-31T14:28:34;98190.65;;;13.81;100.00
41467;BME280;72625;53.700;19.958;2023-10-31T14:33:38;98198.22;;;13.82;100.00
41467;BME280;72625;53.700;19.958;2023-10-31T14:38:42;98209.58;;;13.78;100.00
41467;BME280;72625;53.700;19.958;2023-10-31T14:43:46;98213.61;;;13.80;100.00
41467;BME280;72625;53.700;19.958;2023-10-31T14:48:49;98214.80;;;13.78;100.00
41467;BME280;72625;53.700;19.958;2023-10-31T14:53:53;98224.15;;;13.74;100.00
41467;BME280;72625;53.700;19.958;2023-10-31T14:58:56;98228.43;;;13.74;100.00
41467;BME280;72625;53.700;19.958;2023-10-31T15:03:59;98224.88;;;13.73;100.00
41467;BME280;72625;53.700;19.958;2023-10-31T15:09:03;98235.30;;;13.72;100.00
41467;BME280;72625;53.700;19.958;2023-10-31T15:14:06;98242.20;;;13.72;100.00
41467;BME280;72625;53.700;19.958;2023-10-31T15:19:10;98245.56;;;13.75;100.00
41467;BME280;72625;53.700;19.958;2023-10-31T15:24:13;98240.17;;;13.75;100.00
41467;BME280;72625;53.700;19.958;2023-10-31T15:29:17;98235.67;;;13.71;100.00
41467;BME280;72625;53.700;19.958;2023-10-31T15:34:21;98245.84;;;13.71;100.00
41467;BME280;72625;53.700;19.958;2023-10-31T15:39:24;98252.29;;;13.68;100.00
41467;BME280;72625;53.700;19.958;2023-10-31T15:44:28;98256.38;;;13.59;100.00
41467;BME280;72625;53.700;19.958;2023-10-31T15:49:31;98258.30;;;13.42;100.00
41467;BME280;72625;53.700;19.958;2023-10-31T15:54:34;98271.96;;;13.27;100.00
41467;BME280;72625;53.700;19.958;2023-10-31T15:59:37;98278.77;;;13.17;100.00
41467;BME280;72625;53.700;19.958;2023-10-31T16:04:42;98290.33;;;13.10;100.00
41467;BME280;72625;53.700;19.958;2023-10-31T16:09:45;98307.87;;;13.06;100.00
41467;BME280;72625;53.700;19.958;2023-10-31T16:14:49;98310.33;;;12.96;100.00
41467;BME280;72625;53.700;19.958;2023-10-31T16:19:52;98321.50;;;12.79;100.00
41467;BME280;72625;53.700;19.958;2023-10-31T16:24:55;98323.24;;;12.65;100.00
41467;BME280;72625;53.700;19.958;2023-10-31T16:29:59;98330.10;;;12.51;100.00
41467;BME280;72625;53.700;19.958;2023-10-31T16:35:03;98338.01;;;12.41;100.00
41467;BME280;72625;53.700;19.958;2023-10-31T16:40:08;98358.48;;;12.33;100.00
41467;BME280;72625;53.700;19.958;2023-10-31T16:45:11;98374.11;;;12.22;100.00
41467;BME280;72625;53.700;19.958;2023-10-31T16:50:15;98377.66;;;12.14;100.00
41467;BME280;72625;53.700;19.958;2023-10-31T16:55:18;98389.46;;;12.09;100.00
41467;BME280;72625;53.700;19.958;2023-10-31T17:00:22;98395.13;;;12.03;100.00
41467;BME280;72625;53.700;19.958;2023-10-31T17:05:26;98398.39;;;11.98;100.00
41467;BME280;72625;53.700;19.958;2023-10-31T17:10:29;98412.67;;;11.95;100.00
41467;BME280;72625;53.700;19.958;2023-10-31T17:15:33;98415.77;;;11.96;99.99
41467;BME280;72625;53.700;19.958;2023-10-31T17:20:36;98417.73;;;11.89;99.11
41467;BME280;72625;53.700;19.958;2023-10-31T17:25:40;98427.30;;;11.86;97.80
41467;BME280;72625;53.700;19.958;2023-10-31T17:30:45;98427.74;;;11.80;96.39
41467;BME280;72625;53.700;19.958;2023-10-31T17:35:49;98441.72;;;11.82;96.89
41467;BME280;72625;53.700;19.958;2023-10-31T17:40:52;98454.58;;;11.74;96.11
41467;BME280;72625;53.700;19.958;2023-10-31T17:45:58;98457.30;;;11.72;96.25
41467;BME280;72625;53.700;19.958;2023-10-31T17:51:03;98459.93;;;11.68;96.32
41467;BME280;72625;53.700;19.958;2023-10-31T17:56:07;98457.02;;;11.61;95.95
41467;BME280;72625;53.700;19.958;2023-10-31T18:01:10;98454.58;;;11.57;96.39
41467;BME280;72625;53.700;19.958;2023-10-31T18:06:14;98441.05;;;11.48;96.47
41467;BME280;72625;53.700;19.958;2023-10-31T18:11:17;98443.11;;;11.37;96.71
41467;BME280;72625;53.700;19.958;2023-10-31T18:16:21;98441.28;;;11.25;97.18
41467;BME280;72625;53.700;19.958;2023-10-31T18:21:24;98442.34;;;11.15;97.41
41467;BME280;72625;53.700;19.958;2023-10-31T18:26:28;98457.95;;;11.11;97.90
41467;BME280;72625;53.700;19.958;2023-10-31T18:31:31;98464.60;;;11.12;98.06
41467;BME280;72625;53.700;19.958;2023-10-31T18:36:36;98467.34;;;11.15;97.59
41467;BME280;72625;53.700;19.958;2023-10-31T18:41:42;98455.57;;;11.18;97.71
41467;BME280;72625;53.700;19.958;2023-10-31T18:47:04;98453.84;;;11.19;97.66
41467;BME280;72625;53.700;19.958;2023-10-31T18:52:08;98458.40;;;11.28;98.25
41467;BME280;72625;53.700;19.958;2023-10-31T18:57:12;98454.30;;;11.36;98.13
41467;BME280;72625;53.700;19.958;2023-10-31T19:02:15;98459.92;;;11.42;97.60
41467;BME280;72625;53.700;19.958;2023-10-31T19:07:19;98451.27;;;11.42;97.06
41467;BME280;72625;53.700;19.958;2023-10-31T19:12:22;98443.95;;;11.41;97.00
41467;BME280;72625;53.700;19.958;2023-10-31T19:17:25;98440.34;;;11.41;97.41
41467;BME280;72625;53.700;19.958;2023-10-31T19:22:29;98438.79;;;11.40;97.01
41467;BME280;72625;53.700;19.958;2023-10-31T19:27:32;98447.52;;;11.40;96.73
41467;BME280;72625;53.700;19.958;2023-10-31T19:32:35;98444.23;;;11.44;97.54
41467;BME280;72625;53.700;19.958;2023-10-31T19:37:39;98440.86;;;11.46;97.16
41467;BME280;72625;53.700;19.958;2023-10-31T19:42:47;98441.07;;;11.45;97.09
41467;BME280;72625;53.700;19.958;2023-10-31T19:47:51;98453.73;;;11.46;97.55
41467;BME280;72625;53.700;19.958;2023-10-31T19:52:56;98448.80;;;11.48;97.40
41467;BME280;72625;53.700;19.958;2023-10-31T19:57:59;98451.08;;;11.48;97.40
41467;BME280;72625;53.700;19.958;2023-10-31T20:03:03;98459.95;;;11.46;97.10
41467;BME280;72625;53.700;19.958;2023-10-31T20:08:06;98466.86;;;11.45;97.15
41467;BME280;72625;53.700;19.958;2023-10-31T20:13:10;98459.11;;;11.44;96.75
41467;BME280;72625;53.700;19.958;2023-10-31T20:18:14;98465.25;;;11.41;96.60
41467;BME280;72625;53.700;19.958;2023-10-31T20:23:18;98475.83;;;11.40;96.63
41467;BME280;72625;53.700;19.958;2023-10-31T20:28:21;98478.15;;;11.44;96.31
41467;BME280;72625;53.700;19.958;2023-10-31T20:33:24;98493.66;;;11.50;95.69
41467;BME280;72625;53.700;19.958;2023-10-31T20:38:28;98505.59;;;11.54;95.09
41467;BME280;72625;53.700;19.958;2023-10-31T20:43:32;98507.98;;;11.59;94.23
41467;BME280;72625;53.700;19.958;2023-10-31T20:48:35;98521.06;;;11.65;93.61
41467;BME280;72625;53.700;19.958;2023-10-31T20:53:39;98528.66;;;11.69;93.09
41467;BME280;72625;53.700;19.958;2023-10-31T20:58:42;98521.18;;;11.71;93.01
41467;BME280;72625;53.700;19.958;2023-10-31T21:03:46;98514.15;;;11.74;93.20
41467;BME280;72625;53.700;19.958;2023-10-31T21:08:50;98526.85;;;11.71;92.73
41467;BME280;72625;53.700;19.958;2023-10-31T21:13:54;98527.33;;;11.74;92.75
41467;BME280;72625;53.700;19.958;2023-10-31T21:18:58;98526.78;;;11.74;92.50
41467;BME280;72625;53.700;19.958;2023-10-31T21:24:02;98525.56;;;11.70;92.77
41467;BME280;72625;53.700;19.958;2023-10-31T21:29:06;98515.03;;;11.62;92.38
41467;BME280;72625;53.700;19.958;2023-10-31T21:34:10;98532.01;;;11.53;93.03
41467;BME280;72625;53.700;19.958;2023-10-31T21:39:17;98541.43;;;11.40;94.33
41467;BME280;72625;53.700;19.958;2023-10-31T21:44:22;98549.89;;;11.20;95.92
41467;BME280;72625;53.700;19.958;2023-10-31T21:49:29;98546.46;;;10.99;97.36
41467;BME280;72625;53.700;19.958;2023-10-31T21:54:32;98547.65;;;10.84;98.27
41467;BME280;72625;53.700;19.958;2023-10-31T21:59:36;98557.33;;;10.71;99.40
41467;BME280;72625;53.700;19.958;2023-10-31T22:04:39;98565.86;;;10.64;99.59
41467;BME280;72625;53.700;19.958;2023-10-31T22:09:42;98563.96;;;10.60;99.71
41467;BME280;72625;53.700;19.958;2023-10-31T22:14:45;98563.38;;;10.56;100.00
41467;BME280;72625;53.700;19.958;2023-10-31T22:19:49;98575.48;;;10.56;100.00
41467;BME280;72625;53.700;19.958;2023-10-31T22:24:52;98579.59;;;10.55;99.95
41467;BME280;72625;53.700;19.958;2023-10-31T22:29:56;98573.42;;;10.51;99.81
41467;BME280;72625;53.700;19.958;2023-10-31T22:34:59;98580.39;;;10.49;99.46
41467;BME280;72625;53.700;19.958;2023-10-31T22:40:03;98587.25;;;10.49;98.94
41467;BME280;72625;53.700;19.958;2023-10-31T22:45:07;98584.48;;;10.49;98.79
41467;BME280;72625;53.700;19.958;2023-10-31T22:50:12;98597.71;;;10.48;98.08
41467;BME280;72625;53.700;19.958;2023-10-31T22:55:15;98602.31;;;10.47;97.71
41467;BME280;72625;53.700;19.958;2023-10-31T23:00:19;98605.56;;;10.51;97.68
41467;BME280;72625;53.700;19.958;2023-10-31T23:05:29;98612.31;;;10.49;96.94
41467;BME280;72625;53.700;19.958;2023-10-31T23:10:34;98623.58;;;10.48;96.23
41467;BME280;72625;53.700;19.958;2023-10-31T23:15:38;98631.83;;;10.47;96.53
41467;BME280;72625;53.700;19.958;2023-10-31T23:20:42;98654.16;;;10.42;95.87
41467;BME280;72625;53.700;19.958;2023-10-31T23:25:45;98672.06;;;10.36;94.89
41467;BME280;72625;53.700;19.958;2023-10-31T23:30:49;98677.11;;;10.32;94.12
41467;BME280;72625;53.700;19.958;2023-10-31T23:36:00;98682.81;;;10.31;94.64
41467;BME280;72625;53.700;19.958;2023-10-31T23:41:03;98692.55;;;10.23;94.01
41467;BME280;72625;53.700;19.958;2023-10-31T23:46:07;98711.99;;;10.17;94.09
41467;BME280;72625;53.700;19.958;2023-10-31T23:51:11;98725.73;;;10.10;93.85
41467;BME280;72625;53.700;19.958;2023-10-31T23:56:14;98733.13;;;9.98;93.57
